Current Weather

Mors Muni-J.R. Wsbrn Fd Ap

Mors Muni-J.R. Wsbrn Fd Ap, Illinois (KC09)

Report from: Monday, May 23, 2022 2:55 AM CDT
Current time: Monday, May 23, 2022 3:12 AM CDT

Nearby weather
Weather history
Weather forecast

Temperature7.5°C (45.5°F)
Dew point4.8°C (40.6°F)
Winds Calm
Visibility10 mi. (16.1 km)
Clouds Sky clear
Altimeter30.35 in.Hg (1028 mB)
Relative humidity83 %
Density altitude-1,267 ft. (-386 m)
Remarks Fully automated report
Automated weather observing station with precipitation discriminator
Flight conditions Visual Meteorological Conditions
Raw dataKC09 230755Z AUTO 00000KT 10SM CLR 08/05 A3035 RMK AO2 T00750048
An error has occurred. This application may no longer respond until reloaded. Reload 🗙